This is the latest recevied weather packets stored in our database for station/object F4DYW-13. If no packets are shown the sender has not sent any weather packets the latest 10 day(s).
| Time | Temp. | Humidity | Pressure | Rain* | Wind** | Luminosity | Snow |
|---|---|---|---|---|---|---|---|
| 1777729740 | 19.44° C | 44% | 1024.5 hPa | 0 mm | - | - | - |
| 1777728701 | 19.44° C | 43% | 1024.7 hPa | 0 mm | - | - | - |
| 1777727664 | 20° C | 41% | 1025 hPa | 0 mm | - | - | - |
| 1777726629 | 21.11° C | 36% | 1025 hPa | 0 mm | - | - | - |
| 1777725587 | 20° C | 46% | 1025.1 hPa | 0 mm | - | - | - |
| 1777724549 | 20° C | 51% | 1025.3 hPa | 0 mm | - | - | - |
| 1777723511 | 20° C | 52% | 1025.6 hPa | 0 mm | - | - | - |
| 1777722583 | 19.44° C | 55% | 1025.8 hPa | 0 mm | - | - | - |
| 1777721439 | 19.44° C | 54% | 1026 hPa | 0 mm | - | - | - |
| 1777720399 | 19.44° C | 53% | 1026.2 hPa | 0 mm | - | - | - |
| 1777719364 | 19.44° C | 53% | 1026.2 hPa | 0 mm | - | - | - |
| 1777718326 | 19.44° C | 54% | 1026.5 hPa | 0 mm | - | - | - |
| 1777717287 | 18.89° C | 57% | 1026.8 hPa | 0 mm | - | - | - |
| 1777716251 | 18.89° C | 60% | 1026.9 hPa | 0 mm | - | - | - |
| 1777715215 | 18.89° C | 61% | 1027.1 hPa | 0 mm | - | - | - |
| 1777714167 | 18.89° C | 61% | 1027.3 hPa | 0 mm | - | - | - |
| 1777713129 | 18.89° C | 62% | 1027.4 hPa | 0 mm | - | - | - |
| 1777712093 | 18.89° C | 61% | 1027.4 hPa | 0 mm | - | - | - |
| 1777711055 | 18.89° C | 59% | 1027.4 hPa | 0 mm | - | - | - |
| 1777710014 | 18.33° C | 62% | 1027.4 hPa | 0 mm | - | - | - |
| 1777708978 | 18.33° C | 61% | 1027.4 hPa | 0 mm | - | - | - |
| 1777707943 | 18.33° C | 61% | 1027.4 hPa | 0 mm | - | - | - |
| 1777706907 | 18.33° C | 60% | 1027.4 hPa | 0 mm | - | - | - |
| 1777705871 | 18.33° C | 60% | 1027.5 hPa | 0 mm | - | - | - |
| 1777704836 | 18.33° C | 60% | 1027.4 hPa | 0 mm | - | - | - |
* Rain latest hour (hover to see other rain measurements)
** Current wind speed in m/s (hover to see current wind gust speed)